sensor_id;sensor_type;location;lat;lon;timestamp;P1;durP1;ratioP1;P2;durP2;ratioP2
13483;SDS011;6814;57.786;12.080;2023-08-01T00:01:26;189.57;;;10.23;;
13483;SDS011;6814;57.786;12.080;2023-08-01T00:03:53;404.37;;;16.37;;
13483;SDS011;6814;57.786;12.080;2023-08-01T00:06:19;427.00;;;17.83;;
13483;SDS011;6814;57.786;12.080;2023-08-01T00:08:47;245.67;;;12.07;;
13483;SDS011;6814;57.786;12.080;2023-08-01T00:11:13;387.30;;;15.30;;
13483;SDS011;6814;57.786;12.080;2023-08-01T00:13:42;361.00;;;14.90;;
13483;SDS011;6814;57.786;12.080;2023-08-01T00:16:09;145.50;;;9.47;;
13483;SDS011;6814;57.786;12.080;2023-08-01T00:18:35;402.07;;;14.97;;
13483;SDS011;6814;57.786;12.080;2023-08-01T00:21:02;322.15;;;14.48;;
13483;SDS011;6814;57.786;12.080;2023-08-01T00:23:30;293.90;;;12.23;;
13483;SDS011;6814;57.786;12.080;2023-08-01T00:25:56;456.63;;;15.10;;
13483;SDS011;6814;57.786;12.080;2023-08-01T00:28:23;239.97;;;12.57;;
13483;SDS011;6814;57.786;12.080;2023-08-01T00:30:50;119.37;;;7.43;;
13483;SDS011;6814;57.786;12.080;2023-08-01T00:33:17;136.50;;;8.27;;
13483;SDS011;6814;57.786;12.080;2023-08-01T00:35:43;345.27;;;14.07;;
13483;SDS011;6814;57.786;12.080;2023-08-01T00:38:10;276.20;;;11.57;;
13483;SDS011;6814;57.786;12.080;2023-08-01T00:40:36;215.13;;;9.33;;
13483;SDS011;6814;57.786;12.080;2023-08-01T00:43:03;235.67;;;10.27;;
13483;SDS011;6814;57.786;12.080;2023-08-01T00:45:29;286.63;;;11.73;;
13483;SDS011;6814;57.786;12.080;2023-08-01T00:47:57;247.63;;;11.13;;
13483;SDS011;6814;57.786;12.080;2023-08-01T00:50:24;137.13;;;7.07;;
13483;SDS011;6814;57.786;12.080;2023-08-01T00:52:50;164.43;;;8.67;;
13483;SDS011;6814;57.786;12.080;2023-08-01T00:55:17;147.93;;;7.63;;
13483;SDS011;6814;57.786;12.080;2023-08-01T00:57:44;209.20;;;9.60;;
13483;SDS011;6814;57.786;12.080;2023-08-01T01:00:12;162.83;;;8.50;;
13483;SDS011;6814;57.786;12.080;2023-08-01T01:02:37;118.93;;;7.23;;
13483;SDS011;6814;57.786;12.080;2023-08-01T01:05:06;278.53;;;11.30;;
13483;SDS011;6814;57.786;12.080;2023-08-01T01:07:32;89.17;;;6.57;;
13483;SDS011;6814;57.786;12.080;2023-08-01T01:09:59;152.60;;;8.10;;
13483;SDS011;6814;57.786;12.080;2023-08-01T01:12:25;146.60;;;7.63;;
13483;SDS011;6814;57.786;12.080;2023-08-01T01:14:51;234.33;;;9.43;;
13483;SDS011;6814;57.786;12.080;2023-08-01T01:17:18;270.87;;;10.30;;
13483;SDS011;6814;57.786;12.080;2023-08-01T01:19:44;283.50;;;10.53;;
13483;SDS011;6814;57.786;12.080;2023-08-01T01:22:12;191.80;;;8.43;;
13483;SDS011;6814;57.786;12.080;2023-08-01T01:24:38;384.57;;;14.47;;
13483;SDS011;6814;57.786;12.080;2023-08-01T01:27:06;262.93;;;10.70;;
13483;SDS011;6814;57.786;12.080;2023-08-01T01:29:33;256.00;;;9.87;;
13483;SDS011;6814;57.786;12.080;2023-08-01T01:32:00;190.70;;;8.20;;
13483;SDS011;6814;57.786;12.080;2023-08-01T01:34:27;215.37;;;8.70;;
13483;SDS011;6814;57.786;12.080;2023-08-01T01:36:53;149.23;;;7.63;;
13483;SDS011;6814;57.786;12.080;2023-08-01T01:39:21;144.73;;;7.37;;
13483;SDS011;6814;57.786;12.080;2023-08-01T01:41:47;355.43;;;12.83;;
13483;SDS011;6814;57.786;12.080;2023-08-01T01:44:14;153.90;;;7.87;;
13483;SDS011;6814;57.786;12.080;2023-08-01T01:46:40;176.70;;;8.30;;
13483;SDS011;6814;57.786;12.080;2023-08-01T01:49:06;255.07;;;9.60;;
13483;SDS011;6814;57.786;12.080;2023-08-01T01:51:33;272.67;;;10.57;;
13483;SDS011;6814;57.786;12.080;2023-08-01T01:53:59;233.70;;;9.53;;
13483;SDS011;6814;57.786;12.080;2023-08-01T01:56:27;239.63;;;9.27;;
13483;SDS011;6814;57.786;12.080;2023-08-01T01:58:54;156.97;;;7.17;;
13483;SDS011;6814;57.786;12.080;2023-08-01T02:01:21;138.00;;;7.00;;
13483;SDS011;6814;57.786;12.080;2023-08-01T02:03:47;140.73;;;7.93;;
13483;SDS011;6814;57.786;12.080;2023-08-01T02:06:14;209.07;;;9.23;;
13483;SDS011;6814;57.786;12.080;2023-08-01T02:08:40;202.13;;;9.00;;
13483;SDS011;6814;57.786;12.080;2023-08-01T02:11:06;143.10;;;6.67;;
13483;SDS011;6814;57.786;12.080;2023-08-01T02:13:34;186.57;;;8.00;;
13483;SDS011;6814;57.786;12.080;2023-08-01T02:16:01;304.57;;;12.23;;
13483;SDS011;6814;57.786;12.080;2023-08-01T02:18:27;284.30;;;10.80;;
13483;SDS011;6814;57.786;12.080;2023-08-01T02:20:54;304.20;;;11.80;;
13483;SDS011;6814;57.786;12.080;2023-08-01T02:23:20;239.97;;;10.77;;
13483;SDS011;6814;57.786;12.080;2023-08-01T02:25:46;218.03;;;9.50;;
13483;SDS011;6814;57.786;12.080;2023-08-01T02:28:13;245.03;;;10.37;;
13483;SDS011;6814;57.786;12.080;2023-08-01T02:30:40;299.70;;;13.27;;
13483;SDS011;6814;57.786;12.080;2023-08-01T02:33:07;238.07;;;10.63;;
13483;SDS011;6814;57.786;12.080;2023-08-01T02:35:33;300.60;;;12.80;;
13483;SDS011;6814;57.786;12.080;2023-08-01T02:37:59;257.77;;;11.70;;
13483;SDS011;6814;57.786;12.080;2023-08-01T02:40:28;233.17;;;10.77;;
13483;SDS011;6814;57.786;12.080;2023-08-01T02:42:54;186.77;;;11.40;;
13483;SDS011;6814;57.786;12.080;2023-08-01T02:45:21;365.93;;;14.87;;
13483;SDS011;6814;57.786;12.080;2023-08-01T02:47:48;230.40;;;12.50;;
13483;SDS011;6814;57.786;12.080;2023-08-01T02:50:15;204.73;;;11.20;;
13483;SDS011;6814;57.786;12.080;2023-08-01T02:52:41;237.50;;;11.77;;
13483;SDS011;6814;57.786;12.080;2023-08-01T02:55:08;162.00;;;10.73;;
13483;SDS011;6814;57.786;12.080;2023-08-01T02:57:34;135.30;;;10.87;;
13483;SDS011;6814;57.786;12.080;2023-08-01T03:00:01;174.17;;;12.00;;
13483;SDS011;6814;57.786;12.080;2023-08-01T03:02:30;97.87;;;9.80;;
13483;SDS011;6814;57.786;12.080;2023-08-01T03:04:58;116.93;;;10.77;;
13483;SDS011;6814;57.786;12.080;2023-08-01T03:07:24;53.33;;;8.20;;
13483;SDS011;6814;57.786;12.080;2023-08-01T03:09:50;65.50;;;9.60;;
13483;SDS011;6814;57.786;12.080;2023-08-01T03:12:17;102.97;;;10.67;;
13483;SDS011;6814;57.786;12.080;2023-08-01T03:14:43;43.97;;;9.23;;
13483;SDS011;6814;57.786;12.080;2023-08-01T03:17:12;49.93;;;9.27;;
13483;SDS011;6814;57.786;12.080;2023-08-01T03:19:39;67.20;;;9.57;;
13483;SDS011;6814;57.786;12.080;2023-08-01T03:22:06;28.70;;;8.60;;
13483;SDS011;6814;57.786;12.080;2023-08-01T03:24:33;223.97;;;16.03;;
13483;SDS011;6814;57.786;12.080;2023-08-01T03:27:00;49.60;;;8.90;;
13483;SDS011;6814;57.786;12.080;2023-08-01T03:29:26;32.90;;;9.47;;
13483;SDS011;6814;57.786;12.080;2023-08-01T03:31:52;31.57;;;9.87;;
13483;SDS011;6814;57.786;12.080;2023-08-01T03:34:19;45.00;;;9.57;;
13483;SDS011;6814;57.786;12.080;2023-08-01T03:36:45;58.03;;;11.00;;
13483;SDS011;6814;57.786;12.080;2023-08-01T03:39:13;53.73;;;10.53;;
13483;SDS011;6814;57.786;12.080;2023-08-01T03:41:40;38.63;;;9.23;;
13483;SDS011;6814;57.786;12.080;2023-08-01T03:44:07;50.77;;;10.67;;
13483;SDS011;6814;57.786;12.080;2023-08-01T03:46:33;34.47;;;10.20;;
13483;SDS011;6814;57.786;12.080;2023-08-01T03:48:59;26.43;;;9.50;;
13483;SDS011;6814;57.786;12.080;2023-08-01T03:51:26;17.67;;;9.17;;
13483;SDS011;6814;57.786;12.080;2023-08-01T03:53:52;21.07;;;8.80;;
13483;SDS011;6814;57.786;12.080;2023-08-01T03:56:20;20.67;;;9.70;;
13483;SDS011;6814;57.786;12.080;2023-08-01T03:58:46;14.70;;;8.43;;
13483;SDS011;6814;57.786;12.080;2023-08-01T04:01:12;19.87;;;8.90;;
13483;SDS011;6814;57.786;12.080;2023-08-01T04:03:39;13.17;;;8.50;;
13483;SDS011;6814;57.786;12.080;2023-08-01T04:06:05;14.70;;;8.60;;
13483;SDS011;6814;57.786;12.080;2023-08-01T04:08:32;12.00;;;8.90;;
13483;SDS011;6814;57.786;12.080;2023-08-01T04:10:58;12.73;;;8.13;;
13483;SDS011;6814;57.786;12.080;2023-08-01T04:13:26;10.47;;;8.13;;
13483;SDS011;6814;57.786;12.080;2023-08-01T04:15:52;11.27;;;7.63;;
13483;SDS011;6814;57.786;12.080;2023-08-01T04:18:19;15.13;;;8.03;;
13483;SDS011;6814;57.786;12.080;2023-08-01T04:20:45;10.77;;;7.67;;
13483;SDS011;6814;57.786;12.080;2023-08-01T04:23:12;16.10;;;8.67;;
13483;SDS011;6814;57.786;12.080;2023-08-01T04:25:40;11.67;;;7.70;;
13483;SDS011;6814;57.786;12.080;2023-08-01T04:28:06;11.10;;;8.57;;
13483;SDS011;6814;57.786;12.080;2023-08-01T04:30:34;10.57;;;7.13;;
13483;SDS011;6814;57.786;12.080;2023-08-01T04:33:03;16.80;;;7.60;;
13483;SDS011;6814;57.786;12.080;2023-08-01T04:35:29;9.67;;;6.60;;
13483;SDS011;6814;57.786;12.080;2023-08-01T04:37:56;8.57;;;6.90;;
13483;SDS011;6814;57.786;12.080;2023-08-01T04:40:22;11.57;;;7.53;;
13483;SDS011;6814;57.786;12.080;2023-08-01T04:42:49;9.57;;;6.93;;
13483;SDS011;6814;57.786;12.080;2023-08-01T04:45:15;7.93;;;6.87;;
13483;SDS011;6814;57.786;12.080;2023-08-01T04:47:43;9.33;;;5.83;;
13483;SDS011;6814;57.786;12.080;2023-08-01T04:50:09;8.53;;;6.27;;
13483;SDS011;6814;57.786;12.080;2023-08-01T04:52:36;8.97;;;6.43;;
13483;SDS011;6814;57.786;12.080;2023-08-01T04:55:02;9.87;;;6.67;;
13483;SDS011;6814;57.786;12.080;2023-08-01T04:57:29;9.20;;;7.07;;
13483;SDS011;6814;57.786;12.080;2023-08-01T04:59:55;7.10;;;6.43;;
13483;SDS011;6814;57.786;12.080;2023-08-01T05:02:22;9.00;;;7.40;;
13483;SDS011;6814;57.786;12.080;2023-08-01T05:04:50;7.93;;;6.70;;
13483;SDS011;6814;57.786;12.080;2023-08-01T05:07:16;8.30;;;6.63;;
13483;SDS011;6814;57.786;12.080;2023-08-01T05:09:42;6.77;;;6.17;;
13483;SDS011;6814;57.786;12.080;2023-08-01T05:12:09;7.13;;;6.43;;
13483;SDS011;6814;57.786;12.080;2023-08-01T05:14:35;7.37;;;6.33;;
13483;SDS011;6814;57.786;12.080;2023-08-01T05:17:02;7.13;;;6.43;;
13483;SDS011;6814;57.786;12.080;2023-08-01T05:19:28;8.80;;;6.40;;
13483;SDS011;6814;57.786;12.080;2023-08-01T05:21:56;7.53;;;5.87;;
13483;SDS011;6814;57.786;12.080;2023-08-01T05:24:22;10.63;;;6.37;;
13483;SDS011;6814;57.786;12.080;2023-08-01T05:26:49;6.87;;;6.00;;
13483;SDS011;6814;57.786;12.080;2023-08-01T05:29:15;7.37;;;5.97;;
13483;SDS011;6814;57.786;12.080;2023-08-01T05:31:42;14.53;;;5.70;;
13483;SDS011;6814;57.786;12.080;2023-08-01T05:34:08;6.20;;;5.60;;
13483;SDS011;6814;57.786;12.080;2023-08-01T05:36:34;9.13;;;5.70;;
13483;SDS011;6814;57.786;12.080;2023-08-01T05:39:03;6.10;;;5.50;;
13483;SDS011;6814;57.786;12.080;2023-08-01T05:41:29;6.90;;;6.13;;
13483;SDS011;6814;57.786;12.080;2023-08-01T05:43:56;6.57;;;5.50;;
13483;SDS011;6814;57.786;12.080;2023-08-01T05:46:22;8.73;;;6.70;;
13483;SDS011;6814;57.786;12.080;2023-08-01T05:48:48;8.40;;;5.30;;
13483;SDS011;6814;57.786;12.080;2023-08-01T05:51:15;7.20;;;5.67;;
13483;SDS011;6814;57.786;12.080;2023-08-01T05:53:41;5.37;;;4.87;;
13483;SDS011;6814;57.786;12.080;2023-08-01T05:56:09;7.60;;;5.83;;
13483;SDS011;6814;57.786;12.080;2023-08-01T05:58:35;5.70;;;4.93;;
13483;SDS011;6814;57.786;12.080;2023-08-01T06:01:02;8.73;;;5.13;;
13483;SDS011;6814;57.786;12.080;2023-08-01T06:03:29;15.37;;;5.47;;
13483;SDS011;6814;57.786;12.080;2023-08-01T06:05:55;7.33;;;5.00;;
13483;SDS011;6814;57.786;12.080;2023-08-01T06:08:21;18.37;;;5.20;;
13483;SDS011;6814;57.786;12.080;2023-08-01T06:10:48;8.80;;;4.70;;
13483;SDS011;6814;57.786;12.080;2023-08-01T06:13:16;12.17;;;4.47;;
13483;SDS011;6814;57.786;12.080;2023-08-01T06:15:42;14.97;;;4.10;;
13483;SDS011;6814;57.786;12.080;2023-08-01T06:18:09;10.03;;;3.83;;
13483;SDS011;6814;57.786;12.080;2023-08-01T06:20:36;4.63;;;3.93;;
13483;SDS011;6814;57.786;12.080;2023-08-01T06:23:02;7.77;;;3.73;;
13483;SDS011;6814;57.786;12.080;2023-08-01T06:25:28;8.23;;;3.60;;
13483;SDS011;6814;57.786;12.080;2023-08-01T06:27:55;3.40;;;3.17;;
13483;SDS011;6814;57.786;12.080;2023-08-01T06:30:22;4.33;;;3.47;;
13483;SDS011;6814;57.786;12.080;2023-08-01T06:32:49;11.13;;;4.03;;
13483;SDS011;6814;57.786;12.080;2023-08-01T06:35:15;4.97;;;4.33;;
13483;SDS011;6814;57.786;12.080;2023-08-01T06:37:42;4.50;;;4.10;;
13483;SDS011;6814;57.786;12.080;2023-08-01T06:40:09;4.80;;;3.80;;
13483;SDS011;6814;57.786;12.080;2023-08-01T06:42:35;5.27;;;3.83;;
13483;SDS011;6814;57.786;12.080;2023-08-01T06:45:02;4.57;;;4.17;;
13483;SDS011;6814;57.786;12.080;2023-08-01T06:47:30;5.20;;;4.20;;
13483;SDS011;6814;57.786;12.080;2023-08-01T06:49:56;4.90;;;4.10;;
13483;SDS011;6814;57.786;12.080;2023-08-01T06:52:22;5.10;;;4.60;;
13483;SDS011;6814;57.786;12.080;2023-08-01T06:54:49;5.80;;;4.60;;
13483;SDS011;6814;57.786;12.080;2023-08-01T06:57:15;4.97;;;4.23;;
13483;SDS011;6814;57.786;12.080;2023-08-01T06:59:41;6.03;;;4.97;;
13483;SDS011;6814;57.786;12.080;2023-08-01T07:02:08;5.97;;;4.87;;
13483;SDS011;6814;57.786;12.080;2023-08-01T07:04:37;6.33;;;4.60;;
13483;SDS011;6814;57.786;12.080;2023-08-01T07:07:03;5.90;;;5.37;;
13483;SDS011;6814;57.786;12.080;2023-08-01T07:09:30;5.40;;;4.90;;
13483;SDS011;6814;57.786;12.080;2023-08-01T07:11:56;5.63;;;5.13;;
13483;SDS011;6814;57.786;12.080;2023-08-01T07:14:22;5.60;;;5.10;;
13483;SDS011;6814;57.786;12.080;2023-08-01T07:16:49;5.80;;;5.20;;
13483;SDS011;6814;57.786;12.080;2023-08-01T07:19:15;5.90;;;5.30;;
13483;SDS011;6814;57.786;12.080;2023-08-01T07:21:43;5.33;;;4.87;;
13483;SDS011;6814;57.786;12.080;2023-08-01T07:24:10;6.40;;;5.43;;
13483;SDS011;6814;57.786;12.080;2023-08-01T07:26:37;6.27;;;5.77;;
13483;SDS011;6814;57.786;12.080;2023-08-01T07:29:03;5.73;;;5.20;;
13483;SDS011;6814;57.786;12.080;2023-08-01T07:31:29;5.43;;;4.97;;
13483;SDS011;6814;57.786;12.080;2023-08-01T07:33:56;5.67;;;5.07;;
13483;SDS011;6814;57.786;12.080;2023-08-01T07:36:22;5.27;;;4.87;;
13483;SDS011;6814;57.786;12.080;2023-08-01T07:38:50;5.67;;;5.13;;
13483;SDS011;6814;57.786;12.080;2023-08-01T07:41:16;5.40;;;4.60;;
13483;SDS011;6814;57.786;12.080;2023-08-01T07:43:43;4.93;;;4.30;;
13483;SDS011;6814;57.786;12.080;2023-08-01T07:46:09;5.37;;;4.87;;
13483;SDS011;6814;57.786;12.080;2023-08-01T07:48:36;5.27;;;4.77;;
13483;SDS011;6814;57.786;12.080;2023-08-01T07:51:03;4.60;;;4.20;;
13483;SDS011;6814;57.786;12.080;2023-08-01T07:53:30;6.00;;;4.47;;
13483;SDS011;6814;57.786;12.080;2023-08-01T07:55:58;4.47;;;4.13;;
13483;SDS011;6814;57.786;12.080;2023-08-01T07:58:27;4.60;;;4.20;;
13483;SDS011;6814;57.786;12.080;2023-08-01T08:00:53;4.50;;;4.10;;
13483;SDS011;6814;57.786;12.080;2023-08-01T08:03:20;4.77;;;4.37;;
13483;SDS011;6814;57.786;12.080;2023-08-01T08:05:47;4.33;;;3.93;;
13483;SDS011;6814;57.786;12.080;2023-08-01T08:08:13;5.33;;;4.87;;
13483;SDS011;6814;57.786;12.080;2023-08-01T08:10:40;4.43;;;3.80;;
13483;SDS011;6814;57.786;12.080;2023-08-01T08:13:08;3.83;;;3.50;;
13483;SDS011;6814;57.786;12.080;2023-08-01T08:15:34;4.00;;;3.70;;
13483;SDS011;6814;57.786;12.080;2023-08-01T08:18:01;3.87;;;3.57;;
13483;SDS011;6814;57.786;12.080;2023-08-01T08:20:29;3.20;;;3.00;;
13483;SDS011;6814;57.786;12.080;2023-08-01T08:22:55;5.53;;;3.50;;
13483;SDS011;6814;57.786;12.080;2023-08-01T08:25:22;4.10;;;3.30;;
13483;SDS011;6814;57.786;12.080;2023-08-01T08:27:48;4.47;;;3.80;;
13483;SDS011;6814;57.786;12.080;2023-08-01T08:30:16;4.23;;;3.73;;
13483;SDS011;6814;57.786;12.080;2023-08-01T08:32:43;3.73;;;3.43;;
13483;SDS011;6814;57.786;12.080;2023-08-01T08:35:09;4.27;;;3.87;;
13483;SDS011;6814;57.786;12.080;2023-08-01T08:37:36;5.30;;;3.67;;
13483;SDS011;6814;57.786;12.080;2023-08-01T08:40:03;3.77;;;3.43;;
13483;SDS011;6814;57.786;12.080;2023-08-01T08:42:29;5.10;;;3.90;;
13483;SDS011;6814;57.786;12.080;2023-08-01T08:44:56;4.30;;;3.40;;
13483;SDS011;6814;57.786;12.080;2023-08-01T08:47:26;3.60;;;3.30;;
13483;SDS011;6814;57.786;12.080;2023-08-01T08:49:56;4.27;;;3.50;;
13483;SDS011;6814;57.786;12.080;2023-08-01T08:52:23;3.50;;;3.20;;
13483;SDS011;6814;57.786;12.080;2023-08-01T08:54:50;3.20;;;2.90;;
13483;SDS011;6814;57.786;12.080;2023-08-01T08:57:17;3.10;;;2.90;;
13483;SDS011;6814;57.786;12.080;2023-08-01T08:59:44;3.93;;;2.87;;
13483;SDS011;6814;57.786;12.080;2023-08-01T09:02:11;2.87;;;2.67;;
13483;SDS011;6814;57.786;12.080;2023-08-01T09:04:39;2.97;;;2.70;;
13483;SDS011;6814;57.786;12.080;2023-08-01T09:07:08;2.70;;;2.50;;
13483;SDS011;6814;57.786;12.080;2023-08-01T09:09:37;3.10;;;2.77;;
13483;SDS011;6814;57.786;12.080;2023-08-01T09:12:05;4.50;;;2.50;;
13483;SDS011;6814;57.786;12.080;2023-08-01T09:14:31;3.90;;;2.47;;
13483;SDS011;6814;57.786;12.080;2023-08-01T09:17:05;3.83;;;2.53;;
13483;SDS011;6814;57.786;12.080;2023-08-01T09:19:31;3.63;;;2.60;;
13483;SDS011;6814;57.786;12.080;2023-08-01T09:21:59;2.73;;;2.40;;
13483;SDS011;6814;57.786;12.080;2023-08-01T09:24:26;2.70;;;2.03;;
13483;SDS011;6814;57.786;12.080;2023-08-01T09:26:52;3.20;;;2.13;;
13483;SDS011;6814;57.786;12.080;2023-08-01T09:29:28;2.93;;;2.00;;
13483;SDS011;6814;57.786;12.080;2023-08-01T09:31:56;3.07;;;2.20;;
13483;SDS011;6814;57.786;12.080;2023-08-01T09:34:23;5.77;;;2.53;;
13483;SDS011;6814;57.786;12.080;2023-08-01T09:36:50;3.87;;;2.20;;
13483;SDS011;6814;57.786;12.080;2023-08-01T09:39:19;2.97;;;2.00;;
13483;SDS011;6814;57.786;12.080;2023-08-01T09:41:46;2.40;;;2.10;;
13483;SDS011;6814;57.786;12.080;2023-08-01T09:44:14;2.13;;;2.00;;
13483;SDS011;6814;57.786;12.080;2023-08-01T09:46:41;4.90;;;2.67;;
13483;SDS011;6814;57.786;12.080;2023-08-01T09:49:09;3.40;;;2.20;;
13483;SDS011;6814;57.786;12.080;2023-08-01T09:51:45;2.03;;;1.90;;
13483;SDS011;6814;57.786;12.080;2023-08-01T09:54:12;3.37;;;2.23;;
13483;SDS011;6814;57.786;12.080;2023-08-01T09:56:40;2.73;;;2.00;;
13483;SDS011;6814;57.786;12.080;2023-08-01T09:59:10;4.07;;;2.17;;
13483;SDS011;6814;57.786;12.080;2023-08-01T10:01:37;3.73;;;2.00;;
13483;SDS011;6814;57.786;12.080;2023-08-01T10:04:04;2.73;;;2.30;;
13483;SDS011;6814;57.786;12.080;2023-08-01T10:06:32;1.83;;;1.70;;
13483;SDS011;6814;57.786;12.080;2023-08-01T10:08:59;2.93;;;1.80;;
13483;SDS011;6814;57.786;12.080;2023-08-01T10:11:25;1.90;;;1.80;;
13483;SDS011;6814;57.786;12.080;2023-08-01T10:13:54;3.20;;;2.13;;
13483;SDS011;6814;57.786;12.080;2023-08-01T10:16:20;3.07;;;1.77;;
13483;SDS011;6814;57.786;12.080;2023-08-01T10:18:47;5.17;;;1.60;;
13483;SDS011;6814;57.786;12.080;2023-08-01T10:21:15;1.77;;;1.60;;
13483;SDS011;6814;57.786;12.080;2023-08-01T10:23:42;2.67;;;1.67;;
13483;SDS011;6814;57.786;12.080;2023-08-01T10:26:10;1.83;;;1.70;;
13483;SDS011;6814;57.786;12.080;2023-08-01T10:28:38;3.30;;;1.60;;
13483;SDS011;6814;57.786;12.080;2023-08-01T10:31:12;2.40;;;1.70;;
13483;SDS011;6814;57.786;12.080;2023-08-01T10:33:46;2.57;;;1.50;;
13483;SDS011;6814;57.786;12.080;2023-08-01T10:36:15;3.47;;;1.53;;
13483;SDS011;6814;57.786;12.080;2023-08-01T10:38:48;3.57;;;1.60;;
13483;SDS011;6814;57.786;12.080;2023-08-01T10:41:18;5.27;;;1.77;;
13483;SDS011;6814;57.786;12.080;2023-08-01T10:43:45;2.77;;;1.50;;
13483;SDS011;6814;57.786;12.080;2023-08-01T10:46:13;2.73;;;1.33;;
13483;SDS011;6814;57.786;12.080;2023-08-01T10:48:47;1.53;;;1.43;;
13483;SDS011;6814;57.786;12.080;2023-08-01T10:51:14;3.40;;;1.63;;
13483;SDS011;6814;57.786;12.080;2023-08-01T10:53:41;3.90;;;1.77;;
13483;SDS011;6814;57.786;12.080;2023-08-01T10:56:19;3.10;;;1.47;;
13483;SDS011;6814;57.786;12.080;2023-08-01T10:58:46;2.07;;;1.30;;
13483;SDS011;6814;57.786;12.080;2023-08-01T11:01:18;2.00;;;1.40;;
13483;SDS011;6814;57.786;12.080;2023-08-01T11:03:45;2.10;;;1.30;;
13483;SDS011;6814;57.786;12.080;2023-08-01T11:06:13;2.70;;;1.60;;
13483;SDS011;6814;57.786;12.080;2023-08-01T11:08:40;3.60;;;1.50;;
13483;SDS011;6814;57.786;12.080;2023-08-01T11:11:10;2.20;;;1.40;;
13483;SDS011;6814;57.786;12.080;2023-08-01T11:13:37;2.13;;;1.40;;
13483;SDS011;6814;57.786;12.080;2023-08-01T11:16:04;1.60;;;1.30;;
13483;SDS011;6814;57.786;12.080;2023-08-01T11:21:26;2.83;;;1.60;;
13483;SDS011;6814;57.786;12.080;2023-08-01T11:23:53;2.57;;;1.20;;
13483;SDS011;6814;57.786;12.080;2023-08-01T11:26:21;1.83;;;1.30;;
13483;SDS011;6814;57.786;12.080;2023-08-01T11:28:48;2.13;;;1.50;;
13483;SDS011;6814;57.786;12.080;2023-08-01T11:31:15;2.63;;;1.60;;
13483;SDS011;6814;57.786;12.080;2023-08-01T11:33:41;1.60;;;1.20;;
13483;SDS011;6814;57.786;12.080;2023-08-01T11:36:08;1.87;;;1.40;;
13483;SDS011;6814;57.786;12.080;2023-08-01T11:38:37;2.17;;;1.63;;
13483;SDS011;6814;57.786;12.080;2023-08-01T11:41:04;2.33;;;1.40;;
13483;SDS011;6814;57.786;12.080;2023-08-01T11:43:37;2.03;;;1.50;;
13483;SDS011;6814;57.786;12.080;2023-08-01T11:46:04;2.57;;;1.40;;
13483;SDS011;6814;57.786;12.080;2023-08-01T11:48:31;1.23;;;1.13;;
13483;SDS011;6814;57.786;12.080;2023-08-01T11:50:57;2.50;;;1.47;;
13483;SDS011;6814;57.786;12.080;2023-08-01T11:53:24;3.87;;;1.50;;
13483;SDS011;6814;57.786;12.080;2023-08-01T11:55:52;1.33;;;1.20;;
13483;SDS011;6814;57.786;12.080;2023-08-01T11:58:31;2.27;;;1.30;;
13483;SDS011;6814;57.786;12.080;2023-08-01T12:01:17;2.10;;;1.27;;
13483;SDS011;6814;57.786;12.080;2023-08-01T12:03:47;1.60;;;1.20;;
13483;SDS011;6814;57.786;12.080;2023-08-01T12:06:17;2.40;;;1.70;;
13483;SDS011;6814;57.786;12.080;2023-08-01T12:09:05;3.67;;;2.10;;
13483;SDS011;6814;57.786;12.080;2023-08-01T12:11:57;2.67;;;1.17;;
13483;SDS011;6814;57.786;12.080;2023-08-01T12:14:24;2.43;;;1.30;;
13483;SDS011;6814;57.786;12.080;2023-08-01T12:16:50;2.70;;;1.20;;
13483;SDS011;6814;57.786;12.080;2023-08-01T12:19:23;1.90;;;1.63;;
13483;SDS011;6814;57.786;12.080;2023-08-01T12:21:50;3.80;;;1.23;;
13483;SDS011;6814;57.786;12.080;2023-08-01T12:24:16;3.37;;;1.50;;
13483;SDS011;6814;57.786;12.080;2023-08-01T12:26:44;2.43;;;1.20;;
13483;SDS011;6814;57.786;12.080;2023-08-01T12:29:14;2.90;;;1.10;;
13483;SDS011;6814;57.786;12.080;2023-08-01T12:31:41;1.37;;;1.17;;
13483;SDS011;6814;57.786;12.080;2023-08-01T12:34:08;2.50;;;1.30;;
13483;SDS011;6814;57.786;12.080;2023-08-01T12:36:35;2.00;;;1.20;;
13483;SDS011;6814;57.786;12.080;2023-08-01T12:39:02;1.47;;;1.37;;
13483;SDS011;6814;57.786;12.080;2023-08-01T12:41:36;2.83;;;1.07;;
13483;SDS011;6814;57.786;12.080;2023-08-01T12:44:03;3.60;;;1.40;;
13483;SDS011;6814;57.786;12.080;2023-08-01T12:46:31;1.60;;;1.17;;
13483;SDS011;6814;57.786;12.080;2023-08-01T12:48:58;2.00;;;1.37;;
13483;SDS011;6814;57.786;12.080;2023-08-01T12:51:24;1.80;;;1.03;;
13483;SDS011;6814;57.786;12.080;2023-08-01T12:53:50;2.57;;;1.40;;
13483;SDS011;6814;57.786;12.080;2023-08-01T12:56:17;1.40;;;1.30;;
13483;SDS011;6814;57.786;12.080;2023-08-01T12:58:44;2.20;;;1.30;;
13483;SDS011;6814;57.786;12.080;2023-08-01T13:01:10;1.70;;;1.30;;
13483;SDS011;6814;57.786;12.080;2023-08-01T13:03:38;2.13;;;1.50;;
13483;SDS011;6814;57.786;12.080;2023-08-01T13:06:04;1.53;;;1.20;;
13483;SDS011;6814;57.786;12.080;2023-08-01T13:08:31;1.53;;;1.13;;
13483;SDS011;6814;57.786;12.080;2023-08-01T13:10:57;2.77;;;1.40;;
13483;SDS011;6814;57.786;12.080;2023-08-01T13:13:25;1.43;;;1.23;;
13483;SDS011;6814;57.786;12.080;2023-08-01T13:15:51;2.23;;;1.33;;
13483;SDS011;6814;57.786;12.080;2023-08-01T13:18:18;2.53;;;2.13;;
13483;SDS011;6814;57.786;12.080;2023-08-01T13:20:46;2.07;;;1.27;;
13483;SDS011;6814;57.786;12.080;2023-08-01T13:23:13;2.37;;;1.30;;
13483;SDS011;6814;57.786;12.080;2023-08-01T13:25:39;1.90;;;1.30;;
13483;SDS011;6814;57.786;12.080;2023-08-01T13:28:06;2.17;;;1.27;;
13483;SDS011;6814;57.786;12.080;2023-08-01T13:30:34;1.60;;;1.27;;
13483;SDS011;6814;57.786;12.080;2023-08-01T13:33:01;2.50;;;1.17;;
13483;SDS011;6814;57.786;12.080;2023-08-01T13:35:28;2.13;;;1.27;;
13483;SDS011;6814;57.786;12.080;2023-08-01T13:37:56;2.23;;;1.27;;
13483;SDS011;6814;57.786;12.080;2023-08-01T13:40:24;3.13;;;1.37;;
13483;SDS011;6814;57.786;12.080;2023-08-01T13:42:50;1.37;;;1.20;;
13483;SDS011;6814;57.786;12.080;2023-08-01T13:45:17;2.97;;;1.37;;
13483;SDS011;6814;57.786;12.080;2023-08-01T13:47:44;2.23;;;1.30;;
13483;SDS011;6814;57.786;12.080;2023-08-01T13:50:10;2.90;;;1.20;;
13483;SDS011;6814;57.786;12.080;2023-08-01T13:52:37;1.60;;;1.27;;
13483;SDS011;6814;57.786;12.080;2023-08-01T13:55:06;1.33;;;1.20;;
13483;SDS011;6814;57.786;12.080;2023-08-01T13:57:34;3.57;;;1.40;;
13483;SDS011;6814;57.786;12.080;2023-08-01T14:00:01;1.40;;;1.20;;
13483;SDS011;6814;57.786;12.080;2023-08-01T14:02:28;3.37;;;1.33;;
13483;SDS011;6814;57.786;12.080;2023-08-01T14:04:58;2.33;;;1.20;;
13483;SDS011;6814;57.786;12.080;2023-08-01T14:07:25;2.23;;;1.30;;
13483;SDS011;6814;57.786;12.080;2023-08-01T14:09:51;2.07;;;1.20;;
13483;SDS011;6814;57.786;12.080;2023-08-01T14:12:20;2.07;;;1.17;;
13483;SDS011;6814;57.786;12.080;2023-08-01T14:14:47;1.30;;;1.20;;
13483;SDS011;6814;57.786;12.080;2023-08-01T14:17:13;1.53;;;1.30;;
13483;SDS011;6814;57.786;12.080;2023-08-01T14:19:40;2.13;;;1.30;;
13483;SDS011;6814;57.786;12.080;2023-08-01T14:22:06;2.53;;;1.27;;
13483;SDS011;6814;57.786;12.080;2023-08-01T14:24:32;1.83;;;1.60;;
13483;SDS011;6814;57.786;12.080;2023-08-01T14:26:59;4.53;;;1.40;;
13483;SDS011;6814;57.786;12.080;2023-08-01T14:29:27;1.37;;;1.33;;
13483;SDS011;6814;57.786;12.080;2023-08-01T14:31:54;3.13;;;1.40;;
13483;SDS011;6814;57.786;12.080;2023-08-01T14:34:20;2.03;;;1.20;;
13483;SDS011;6814;57.786;12.080;2023-08-01T14:36:47;2.27;;;1.57;;
13483;SDS011;6814;57.786;12.080;2023-08-01T14:39:13;1.43;;;1.27;;
13483;SDS011;6814;57.786;12.080;2023-08-01T14:41:40;3.47;;;1.30;;